Latest Weather Observations for Maatsuyker Island

IDT60801

Issued at 11:35 am EST Sunday 21 September 2014 (issued every 30 minutes, with the page automatically refreshed every 10 minutes)

About weather observations | Map of weather stations | Latest weather observations for TAS | Other Formats
Station Details ID: 094041 Name: MAATSUYKER ISLAND LIGHTHOUSE Lat: -43.66 Lon: 146.27 Height: 146.5 m
Data from the previous 72 hours. | See also: Recent months at Maatsuyker Island
Date/Time
EST
Temp
°C
App
Temp
°C
Dew
Point
Rel
Hum
%
Delta-T
°C
Wind Press
QNH
hPa
Press
MSL
hPa
Rain
since 9 am
mm
Dir
 
Spd
km/h
Gust
km/h
Spd
kts
Gust
kts
21/11:30am 11.4 -0.5 7.0 74 2.1 NW 59 67 32 36 1026.5 - 0.0
21/11:00am 11.2 -0.9 6.3 72 2.3 NW 59 69 32 37 1026.5 - 0.0
21/10:30am 10.9 -0.6 6.2 73 2.2 NW 56 65 30 35 1026.5 - 0.0
21/10:00am 10.8 -0.7 7.0 77 1.8 NW 57 63 31 34 1026.7 - 0.0
21/09:30am 10.5 -0.9 6.9 78 1.7 NW 56 61 30 33 1026.9 - 0.0
21/09:00am 10.4 1.1 5.9 73 2.1 WNW 44 63 24 34 1026.8 1027.0 1.4
21/08:30am 10.1 -0.6 6.5 78 1.7 NW 52 59 28 32 1026.8 - 1.4
21/08:00am 9.8 -1.2 6.8 81 1.4 NW 54 59 29 32 1026.5 - 1.4
21/07:30am 9.9 -0.7 6.9 81 1.4 NW 52 57 28 31 1026.3 - 1.4
21/07:00am 9.7 -0.9 6.7 81 1.4 NW 52 57 28 31 1026.1 - 1.4
21/06:30am 9.7 -0.4 7.4 85 1.1 WNW 50 54 27 29 1026.1 - 1.4
21/06:00am 9.9 0.6 7.6 85 1.1 NW 46 54 25 29 1025.6 1025.6 1.4
21/05:30am 9.9 0.4 8.3 90 0.8 WNW 48 56 26 30 1025.4 - 1.4
21/05:00am 9.8 -0.2 7.7 87 1.0 WNW 50 57 27 31 1025.1 - 1.4
21/04:30am 9.8 0.6 8.1 89 0.8 WNW 46 56 25 30 1025.1 - 1.4
21/04:00am 9.9 0.3 9.3 96 0.3 WNW 50 56 27 30 1025.1 - 1.4
21/03:30am 10.1 0.5 9.5 96 0.3 WNW 50 59 27 32 1025.0 - 1.2
21/03:00am 10.3 -2.0 9.9 97 0.2 NW 65 72 35 39 1023.7 1024.1 1.2
21/02:30am 10.2 -2.2 9.6 96 0.3 NW 65 72 35 39 1023.9 - 1.0
21/02:00am 10.6 -2.0 9.0 90 0.8 NW 65 72 35 39 1023.8 - 1.0
21/01:30am 10.2 -1.9 9.2 93 0.5 NW 63 72 34 39 1023.9 - 1.0
21/01:00am 10.3 -1.8 9.5 95 0.4 NW 63 72 34 39 1024.4 - 1.0
21/12:30am 9.8 -1.9 9.4 97 0.2 NW 61 69 33 37 1024.2 - 0.8
21/12:00am 10.1 -2.4 9.1 93 0.5 NW 65 74 35 40 1024.5 1024.3 0.2
 
Date/Time
EST
Temp
°C
App
Temp
°C
Dew
Point
Rel
Hum
%
Delta-T
°C
Wind Press
QNH
hPa
Press
MSL
hPa
Rain
since 9 am
mm
Dir
 
Spd
km/h
Gust
km/h
Spd
kts
Gust
kts
20/11:30pm 10.6 -2.6 7.9 83 1.3 NW 67 74 36 40 1024.2 - 0.0
20/11:00pm 10.8 -1.0 7.5 80 1.6 NW 59 69 32 37 1024.2 - 0.0
20/10:30pm 10.8 -0.6 7.5 80 1.6 NNW 57 69 31 37 1024.2 - 0.0
20/10:00pm 10.7 -1.4 7.6 81 1.5 NW 61 69 33 37 1024.4 - 0.0
20/09:30pm 10.7 -1.1 7.4 80 1.6 NW 59 65 32 35 1024.7 - 0.0
20/09:00pm 10.7 -1.7 6.7 76 1.9 NW 61 69 33 37 1024.9 1025.1 0.0
20/08:30pm 10.8 -2.0 6.6 75 2.0 NW 63 72 34 39 1024.9 - 0.0
20/08:00pm 10.8 -2.4 6.1 73 2.2 NW 65 70 35 38 1024.8 - 0.0
20/07:30pm 10.7 -2.4 5.2 69 2.5 NW 63 70 34 38 1024.9 - 0.0
20/07:00pm 10.7 -1.9 5.5 70 2.4 NW 61 67 33 36 1024.6 - 0.0
20/06:30pm 10.6 -1.8 6.3 75 2.0 NW 61 70 33 38 1024.6 - 0.0
20/06:00pm 10.6 -1.0 6.8 77 1.8 NW 57 63 31 34 1024.4 1024.5 0.0
20/05:30pm 10.6 -1.9 5.9 73 2.2 NW 61 69 33 37 1023.9 - 0.0
20/05:00pm 10.4 -1.7 6.3 76 1.9 NW 59 69 32 37 1023.6 - 0.0
20/04:30pm 10.8 -1.3 6.1 73 2.2 NW 59 67 32 36 1023.1 - 0.0
20/04:00pm 11.2 -0.4 6.6 73 2.2 NW 57 63 31 34 1023.2 - 0.0
20/03:30pm 10.6 -0.9 7.0 78 1.7 NW 57 63 31 34 1023.8 - 0.0
20/03:00pm 10.8 1.1 5.6 70 2.4 WSW 46 67 25 36 1023.6 1023.7 0.0
20/02:30pm 9.7 -2.3 6.5 80 1.5 NW 59 67 32 36 1023.8 - 0.0
20/02:00pm 11.0 -0.2 5.8 70 2.4 NW 54 59 29 32 1023.8 - 0.0
20/01:30pm 10.3 -0.8 6.5 77 1.8 NW 54 65 29 35 1023.6 - 0.0
20/01:00pm 9.9 -0.9 6.0 77 1.8 WNW 52 61 28 33 1024.1 - 0.0
20/12:30pm 10.5 0.7 7.1 79 1.6 NW 48 56 26 30 1023.9 - 0.0
20/12:00pm 9.4 -1.4 5.9 79 1.6 WNW 52 61 28 33 1024.1 1024.1 0.0
20/11:30am 10.6 -0.4 4.9 68 2.6 WNW 52 59 28 32 1024.1 - 0.0
20/11:00am 9.7 -1.8 6.3 79 1.6 NW 56 65 30 35 1023.7 - 0.0
20/10:30am 9.7 -0.8 7.2 84 1.2 NW 52 61 28 33 1023.5 - 0.0
20/10:00am 9.6 1.5 7.1 84 1.2 WNW 39 46 21 25 1024.0 - 0.0
20/09:42am 10.4 0.5 4.6 67 2.6 WNW 46 65 25 35 1023.5 - 0.0
20/09:30am 10.6 0.6 4.1 64 2.9 WNW 46 52 25 28 1023.8 - 0.0
20/09:00am 10.0 1.6 5.6 74 2.0 SW 39 59 21 32 1023.3 1023.4 0.8
20/08:30am 10.2 -0.1 4.6 68 2.5 WNW 48 57 26 31 1023.5 - 0.8
20/08:00am 10.0 2.0 5.9 75 1.9 WNW 37 43 20 23 1023.3 - 0.6
20/07:30am 9.8 1.9 6.4 79 1.6 WNW 37 46 20 25 1023.3 - 0.6
20/07:00am 9.2 1.9 7.1 87 1.0 WNW 35 46 19 25 1023.0 - 0.6
20/06:30am 9.9 0.4 6.7 80 1.5 WNW 46 54 25 29 1022.5 - 0.6
20/06:00am 9.9 2.1 5.0 71 2.2 WSW 35 54 19 29 1022.0 1022.0 0.6
20/05:30am 9.9 1.6 6.0 77 1.8 WNW 39 46 21 25 1021.9 - 0.6
20/05:00am 9.9 3.1 5.3 73 2.1 W 30 39 16 21 1021.8 - 0.6
20/04:30am 9.7 1.7 3.8 66 2.6 WNW 35 43 19 23 1021.5 - 0.6
20/04:00am 9.8 3.0 5.2 73 2.1 W 30 39 16 21 1021.5 - 0.6
20/03:30am 9.6 1.4 4.7 71 2.2 WNW 37 44 20 24 1021.3 - 0.6
20/03:00am 9.6 2.8 4.9 72 2.1 W 30 46 16 25 1020.8 1021.1 0.6
20/02:30am 9.4 1.7 5.2 75 1.9 W 35 48 19 26 1021.0 - 0.6
20/02:00am 9.7 1.5 6.5 80 1.5 W 39 48 21 26 1021.0 - 0.6
20/01:30am 9.7 2.3 6.9 83 1.3 W 35 46 19 25 1020.8 - 0.6
20/01:00am 9.6 1.5 6.8 83 1.3 W 39 48 21 26 1020.9 - 0.6
20/12:30am 9.5 2.2 7.2 85 1.1 W 35 46 19 25 1020.8 - 0.6
20/12:00am 9.6 2.7 7.3 85 1.1 W 33 43 18 23 1020.5 1020.8 0.6
 
Date/Time
EST
Temp
°C
App
Temp
°C
Dew
Point
Rel
Hum
%
Delta-T
°C
Wind Press
QNH
hPa
Press
MSL
hPa
Rain
since 9 am
mm
Dir
 
Spd
km/h
Gust
km/h
Spd
kts
Gust
kts
19/11:30pm 9.5 2.9 7.6 88 0.9 W 32 44 17 24 1020.6 - 0.6
19/11:00pm 9.8 2.1 7.3 84 1.2 W 37 46 20 25 1020.5 - 0.6
19/10:30pm 10.0 2.5 7.9 87 1.0 W 37 46 20 25 1020.3 - 0.6
19/10:00pm 9.9 3.0 7.4 84 1.2 W 33 43 18 23 1020.3 - 0.6
19/09:30pm 9.7 2.0 7.2 84 1.2 W 37 50 20 27 1020.4 - 0.6
19/09:00pm 9.8 2.3 7.9 88 0.9 W 37 50 20 27 1020.1 1020.2 0.6
19/08:30pm 9.6 3.2 8.4 92 0.6 W 32 44 17 24 1019.9 - 0.6
19/08:08pm 9.9 2.9 8.5 91 0.7 W 35 54 19 29 1019.9 - 0.6
19/08:00pm 9.7 2.3 8.3 91 0.7 W 37 52 20 28 1019.8 - 0.6
19/07:30pm 10.1 3.4 8.3 88 0.9 W 33 44 18 24 1019.5 - 0.6
19/07:00pm 9.9 3.1 7.6 85 1.1 W 33 48 18 26 1019.3 - 0.4
19/06:30pm 9.9 3.1 7.8 87 1.0 W 33 54 18 29 1018.8 - 0.4
19/06:25pm 9.9 2.6 7.4 84 1.2 W 35 54 19 29 1018.8 - 0.4
19/06:00pm 9.7 2.1 7.4 85 1.1 W 37 52 20 28 1018.6 1018.8 0.4
19/05:30pm 9.7 2.2 8.1 90 0.8 W 37 56 20 30 1018.2 - 0.4
19/05:09pm 9.2 1.4 8.2 93 0.5 W 39 57 21 31 1018.1 - 0.4
19/05:00pm 9.4 1.2 8.4 93 0.5 W 41 52 22 28 1017.9 - 0.4
19/04:49pm 9.5 0.5 8.7 95 0.4 WNW 46 65 25 35 1017.8 - 0.2
19/04:30pm 10.0 1.4 9.0 93 0.5 WNW 44 56 24 30 1017.4 - 0.2
19/04:00pm 10.0 -0.2 6.8 80 1.5 WNW 50 59 27 32 1017.5 - 0.2
19/03:30pm 10.7 0.6 7.6 81 1.5 WNW 50 57 27 31 1017.0 - 0.2
19/03:00pm 10.6 2.1 6.8 77 1.8 WSW 41 56 22 30 1017.0 1017.1 0.2
19/02:30pm 10.2 -0.6 7.5 83 1.3 WNW 54 61 29 33 1016.6 - 0.2
19/02:00pm 10.9 1.2 5.7 70 2.4 WNW 46 56 25 30 1016.8 - 0.2
19/01:30pm 10.3 -0.5 6.0 75 2.0 WNW 52 59 28 32 1016.8 - 0.2
19/01:00pm 10.5 0.9 4.5 66 2.7 WNW 44 57 24 31 1017.2 - 0.2
19/12:30pm 10.6 0.7 4.6 66 2.7 W 46 59 25 32 1017.4 - 0.2
19/12:07pm 10.9 1.5 4.5 64 2.9 W 43 61 23 33 1017.3 - 0.2
19/12:00pm 10.8 0.1 4.6 65 2.8 WNW 50 61 27 33 1017.5 1017.5 0.2
19/11:30am 10.6 0.3 4.9 68 2.6 WNW 48 59 26 32 1017.3 - 0.2
19/11:00am 10.5 1.1 5.3 70 2.4 WNW 44 56 24 30 1017.3 - 0.2
19/10:30am 9.7 0.1 4.3 69 2.4 WNW 44 54 24 29 1017.4 - 0.2
19/10:00am 9.5 -0.5 4.3 70 2.3 WNW 46 56 25 30 1017.4 - 0.2
19/09:30am 9.4 -1.0 4.2 70 2.3 WNW 48 59 26 32 1017.2 - 0.0
19/09:18am 9.4 0.7 5.9 79 1.6 WNW 41 59 22 32 1017.1 - 0.0
19/09:00am 9.2 1.5 7.1 87 1.0 SW 37 59 20 32 1017.3 1017.2 3.8
19/08:30am 9.2 0.7 6.9 85 1.1 W 41 52 22 28 1017.1 - 3.8
19/08:00am 9.3 0.3 6.5 83 1.3 W 43 52 23 28 1017.0 - 3.8
19/07:30am 9.2 0.3 6.9 85 1.1 WNW 43 57 23 31 1016.7 - 3.8
19/07:00am 9.3 0.2 6.1 80 1.5 W 43 54 23 29 1016.6 - 3.8
19/06:30am 8.8 -1.0 7.1 89 0.8 WNW 48 65 26 35 1016.4 - 3.8
19/06:18am 9.3 0.3 7.4 88 0.9 W 44 63 24 34 1016.1 - 3.8
19/06:00am 9.2 2.0 7.5 89 0.8 SW 35 56 19 30 1016.1 1016.3 3.8
19/05:30am 9.5 0.0 6.5 81 1.4 W 46 57 25 31 1015.7 - 3.8
19/05:00am 9.3 -0.2 6.5 83 1.3 W 46 61 25 33 1015.6 - 3.8
19/04:30am 9.5 0.9 6.7 83 1.3 W 41 54 22 29 1015.4 - 3.8
19/04:00am 9.4 -0.6 6.2 80 1.5 W 48 63 26 34 1015.2 - 3.8
19/03:42am 9.4 -0.5 6.6 83 1.3 W 48 67 26 36 1015.1 - 3.8
19/03:30am 9.4 -0.5 6.6 83 1.3 W 48 63 26 34 1015.0 - 3.8
19/03:00am 9.5 -0.2 7.4 87 1.0 W 48 65 26 35 1015.0 1015.2 3.8
19/02:30am 9.4 -1.3 8.0 91 0.7 WNW 54 67 29 36 1014.5 - 3.8
19/02:00am 9.2 -2.5 8.0 92 0.6 WNW 59 76 32 41 1014.7 - 3.8
19/01:39am 9.5 -1.6 8.1 91 0.7 WNW 56 74 30 40 1014.4 - 3.8
19/01:30am 9.4 -0.8 8.4 93 0.5 WNW 52 67 28 36 1014.8 - 3.6
19/01:18am 9.2 -1.9 8.2 93 0.5 W 56 74 30 40 1014.9 - 3.6
19/01:00am 9.5 -2.6 7.8 89 0.8 WNW 61 76 33 41 1014.5 - 3.6
19/12:30am 9.6 -3.2 8.2 91 0.7 WNW 65 83 35 45 1013.6 - 3.4
19/12:00am 9.4 -1.7 8.0 91 0.7 WNW 56 67 30 36 1014.1 1014.3 3.2
 
Date/Time
EST
Temp
°C
App
Temp
°C
Dew
Point
Rel
Hum
%
Delta-T
°C
Wind Press
QNH
hPa
Press
MSL
hPa
Rain
since 9 am
mm
Dir
 
Spd
km/h
Gust
km/h
Spd
kts
Gust
kts
18/11:30pm 8.9 -1.6 7.2 89 0.8 W 52 67 28 36 1015.0 - 3.2
18/11:23pm 9.0 -2.4 7.7 91 0.6 W 57 76 31 41 1015.1 - 3.2
18/11:00pm 9.2 -2.1 8.0 92 0.6 WNW 57 70 31 38 1014.5 - 3.0
18/10:30pm 9.4 -3.9 7.5 88 0.9 WNW 67 80 36 43 1014.8 - 2.4
18/10:00pm 9.3 -2.7 8.3 93 0.5 NW 61 72 33 39 1014.8 - 2.4
18/09:39pm 9.2 -3.7 7.7 90 0.7 NW 65 87 35 47 1014.1 - 2.2
18/09:30pm 9.6 -1.6 7.7 88 0.9 NW 56 65 30 35 1014.4 - 1.8
18/09:00pm 9.8 -1.9 6.4 79 1.6 WNW 57 72 31 39 1015.1 1015.1 1.4
18/08:30pm 9.6 -0.3 5.0 73 2.1 WNW 46 54 25 29 1015.7 - 1.4
18/08:00pm 9.5 0.5 4.6 71 2.2 W 41 50 22 27 1016.0 - 1.4
18/07:30pm 9.1 0.6 6.8 85 1.1 WNW 41 52 22 28 1016.0 - 1.4
18/07:00pm 9.1 -0.5 6.1 81 1.4 WNW 46 52 25 28 1015.9 - 1.4
18/06:30pm 9.2 -0.3 4.0 70 2.3 WNW 43 50 23 27 1016.0 - 1.4
18/06:00pm 9.3 -0.3 3.6 67 2.5 WNW 43 50 23 27 1015.8 1016.1 1.4
18/05:30pm 9.3 0.2 4.1 70 2.3 WNW 41 52 22 28 1016.0 - 1.4
18/05:00pm 9.1 0.5 4.4 72 2.1 W 39 48 21 26 1015.9 - 1.4
18/04:30pm 9.0 1.8 5.2 77 1.7 W 32 43 17 23 1015.8 - 1.4
18/04:00pm 9.2 0.7 5.2 76 1.8 W 39 52 21 28 1015.5 - 1.4
18/03:30pm 9.1 1.8 5.4 77 1.7 W 33 44 18 24 1015.3 - 1.4
18/03:00pm 9.6 1.9 5.2 74 2.0 SW 35 50 19 27 1015.3 1015.5 1.4
18/02:50pm 9.2 0.3 5.2 76 1.8 W 41 59 22 32 1015.2 - 1.4
18/02:30pm 8.8 -0.4 5.3 79 1.6 W 43 59 23 32 1015.0 - 1.4
18/02:07pm 8.6 1.3 5.3 80 1.5 W 33 54 18 29 1015.1 - 1.4
18/02:00pm 8.8 1.1 5.5 80 1.5 W 35 48 19 26 1015.0 - 1.4
18/01:42pm 8.9 0.5 5.6 80 1.5 WSW 39 57 21 31 1015.1 - 1.4
18/01:30pm 8.3 -0.7 4.7 78 1.6 WSW 41 52 22 28 1015.0 - 1.4
18/01:00pm 8.1 1.0 5.7 85 1.1 SW 32 46 17 25 1014.9 - 1.4
18/12:37pm 7.1 0.1 5.8 91 0.6 SW 32 50 17 27 1014.9 - 1.2
18/12:30pm 7.3 -0.6 6.0 91 0.6 SW 37 50 20 27 1015.0 - 1.0
18/12:17pm 7.3 -1.1 5.8 90 0.7 W 39 56 21 30 1015.2 - 0.8
18/12:00pm 7.1 -5.3 4.4 83 1.2 WNW 59 76 32 41 1015.3 1015.4 0.4
18/11:56am 7.4 -4.7 4.4 81 1.3 WNW 57 76 31 41 1015.2 - 0.2

Other Formats:

Comma delimited format used in spreadsheet applications
http://www.bom.gov.au/fwo/IDT60801/IDT60801.94962.axf

JavaScript Object Notation format (JSON) in row-major order
http://www.bom.gov.au/fwo/IDT60801/IDT60801.94962.json